createdAt,value
2022-09-27T00:01:10.871Z,9.10
2022-09-27T00:03:38.378Z,9.10
2022-09-27T00:06:28.247Z,9.10
2022-09-27T00:08:56.279Z,9.10
2022-09-27T00:11:33.868Z,9.10
2022-09-27T00:14:01.875Z,9.10
2022-09-27T00:16:33.372Z,9.10
2022-09-27T00:19:03.623Z,9.10
2022-09-27T00:21:32.136Z,9.10
2022-09-27T00:23:59.859Z,9.10
2022-09-27T00:26:28.062Z,9.10
2022-09-27T00:28:55.178Z,9.10
2022-09-27T00:31:31.122Z,9.10
2022-09-27T00:34:03.500Z,9.10
2022-09-27T00:36:32.442Z,9.10
2022-09-27T00:39:00.721Z,9.10
2022-09-27T00:41:34.975Z,9.10
2022-09-27T00:44:06.371Z,9.10
2022-09-27T00:46:43.176Z,9.10
2022-09-27T00:49:31.223Z,9.10
2022-09-27T00:52:44.402Z,9.10
2022-09-27T00:55:18.462Z,9.10
2022-09-27T00:57:47.968Z,9.00
2022-09-27T01:00:16.896Z,9.10
2022-09-27T01:02:52.097Z,9.00
2022-09-27T01:05:22.341Z,9.00
2022-09-27T01:07:49.379Z,9.00
2022-09-27T01:10:18.307Z,9.00
2022-09-27T01:13:23.959Z,9.10
2022-09-27T01:16:57.734Z,9.10
2022-09-27T01:19:55.321Z,9.10
2022-09-27T01:23:05.731Z,9.10
2022-09-27T01:25:46.339Z,9.00
2022-09-27T01:28:33.203Z,9.10
2022-09-27T01:31:12.230Z,9.00
2022-09-27T01:34:16.022Z,9.00
2022-09-27T01:37:08.147Z,9.00
2022-09-27T01:39:45.138Z,9.00
2022-09-27T01:42:37.890Z,9.00
2022-09-27T01:45:25.968Z,9.00
2022-09-27T01:48:01.717Z,9.00
2022-09-27T01:50:42.020Z,9.00
2022-09-27T01:53:33.185Z,9.00
2022-09-27T01:56:04.595Z,9.00
2022-09-27T01:59:17.987Z,9.00
2022-09-27T02:01:49.307Z,9.00
2022-09-27T02:04:22.466Z,9.10
2022-09-27T02:06:56.431Z,9.10
2022-09-27T02:09:49.393Z,9.10
2022-09-27T02:12:23.817Z,9.10
2022-09-27T02:15:00.286Z,9.10
2022-09-27T02:18:11.155Z,9.10
2022-09-27T02:20:47.306Z,9.10
2022-09-27T02:23:31.855Z,9.10
2022-09-27T02:26:05.119Z,9.10
2022-09-27T02:28:43.600Z,9.10
2022-09-27T02:31:10.906Z,9.10
2022-09-27T02:33:44.392Z,9.10
2022-09-27T02:36:12.099Z,9.10
2022-09-27T02:38:39.292Z,9.10
2022-09-27T02:41:20.110Z,9.10
2022-09-27T02:43:52.757Z,9.10
2022-09-27T02:46:53.191Z,9.10
2022-09-27T02:50:08.407Z,9.10
2022-09-27T02:53:08.177Z,9.10
2022-09-27T02:55:44.358Z,9.10
2022-09-27T02:58:34.853Z,9.10
2022-09-27T03:01:23.689Z,9.10
2022-09-27T03:04:06.894Z,9.10
2022-09-27T03:06:35.087Z,9.10
2022-09-27T03:09:02.121Z,9.10
2022-09-27T03:11:29.274Z,9.00
2022-09-27T03:14:08.373Z,9.00
2022-09-27T03:16:35.819Z,9.00
2022-09-27T03:19:02.983Z,9.00
2022-09-27T03:21:30.065Z,9.00
2022-09-27T03:23:57.359Z,9.00
2022-09-27T03:26:25.524Z,8.90
2022-09-27T03:28:52.689Z,9.00
2022-09-27T03:31:20.216Z,9.00
2022-09-27T03:33:47.759Z,9.00
2022-09-27T03:36:14.923Z,9.00
2022-09-27T03:38:42.261Z,9.00
2022-09-27T03:41:09.409Z,9.00
2022-09-27T03:43:36.500Z,9.00
2022-09-27T03:46:03.743Z,8.90
2022-09-27T03:48:33.916Z,9.00
2022-09-27T03:51:01.017Z,8.90
2022-09-27T03:53:28.082Z,8.90
2022-09-27T03:55:55.165Z,8.90
2022-09-27T03:58:22.271Z,8.90
2022-09-27T04:00:49.888Z,8.80
2022-09-27T04:03:17.680Z,8.80
2022-09-27T04:05:44.701Z,8.80
2022-09-27T04:08:13.196Z,8.80
2022-09-27T04:10:40.286Z,8.80
2022-09-27T04:13:07.319Z,8.80
2022-09-27T04:15:34.472Z,8.80
2022-09-27T04:18:01.596Z,8.80
2022-09-27T04:20:28.691Z,8.80
2022-09-27T04:22:55.933Z,8.80
2022-09-27T04:25:23.055Z,8.80
2022-09-27T04:27:55.380Z,8.80
2022-09-27T04:30:23.394Z,8.70
2022-09-27T04:32:50.415Z,8.70
2022-09-27T04:35:36.432Z,8.70
2022-09-27T04:38:03.505Z,8.70
2022-09-27T04:40:30.999Z,8.60
2022-09-27T04:42:58.162Z,8.60
2022-09-27T04:45:25.403Z,8.60
2022-09-27T04:47:52.477Z,8.60
2022-09-27T04:50:20.402Z,8.60
2022-09-27T04:52:54.498Z,8.50
2022-09-27T04:55:22.547Z,8.50
2022-09-27T04:57:50.012Z,8.50
2022-09-27T05:00:17.686Z,8.50
2022-09-27T05:02:46.184Z,8.50
2022-09-27T05:05:13.247Z,8.50
2022-09-27T05:07:40.366Z,8.40
2022-09-27T05:10:09.173Z,8.40
2022-09-27T05:12:36.243Z,8.40
2022-09-27T05:15:04.907Z,8.40
2022-09-27T05:17:32.032Z,8.40
2022-09-27T05:19:59.816Z,8.40
2022-09-27T05:22:26.847Z,8.40
2022-09-27T05:24:53.905Z,8.40
2022-09-27T05:27:20.966Z,8.40
2022-09-27T05:29:48.866Z,8.30
2022-09-27T05:32:16.351Z,8.40
2022-09-27T05:34:43.439Z,8.40
2022-09-27T05:37:10.802Z,8.40
2022-09-27T05:39:37.934Z,8.30
2022-09-27T05:42:07.306Z,8.30
2022-09-27T05:44:35.437Z,8.30
2022-09-27T05:47:04.466Z,8.40
2022-09-27T05:49:32.907Z,8.30
2022-09-27T05:52:00.606Z,8.40
2022-09-27T05:54:29.687Z,8.40
2022-09-27T05:56:58.456Z,8.40
2022-09-27T05:59:26.722Z,8.40
2022-09-27T06:01:54.683Z,8.40
2022-09-27T06:04:22.074Z,8.40
2022-09-27T06:06:49.419Z,8.40
2022-09-27T06:09:17.595Z,8.40
2022-09-27T06:11:46.247Z,8.40
2022-09-27T06:14:16.574Z,8.40
2022-09-27T06:16:45.673Z,8.40
2022-09-27T06:19:13.103Z,8.40
2022-09-27T06:21:40.226Z,8.40
2022-09-27T06:24:07.566Z,8.40
2022-09-27T06:26:34.745Z,8.40
2022-09-27T06:29:01.767Z,8.40
2022-09-27T06:31:28.864Z,8.40
2022-09-27T06:33:55.913Z,8.40
2022-09-27T06:36:23.059Z,8.40
2022-09-27T06:38:50.154Z,8.40
2022-09-27T06:41:17.308Z,8.40
2022-09-27T06:43:46.238Z,8.50
2022-09-27T06:46:13.351Z,8.50
2022-09-27T06:48:40.471Z,8.50
2022-09-27T06:51:07.521Z,8.50
2022-09-27T06:53:34.771Z,8.50
2022-09-27T06:56:02.638Z,8.50
2022-09-27T06:58:48.668Z,8.50
2022-09-27T07:01:17.320Z,8.60
2022-09-27T07:03:44.583Z,8.60
2022-09-27T07:06:23.395Z,8.70
2022-09-27T07:08:52.406Z,8.70
2022-09-27T07:11:20.915Z,8.70
2022-09-27T07:13:47.984Z,8.70
2022-09-27T07:16:15.759Z,8.60
2022-09-27T07:18:43.382Z,8.70
2022-09-27T07:21:12.726Z,8.70
2022-09-27T07:23:39.883Z,8.70
2022-09-27T07:26:10.654Z,8.70
2022-09-27T07:28:38.345Z,8.70
2022-09-27T07:31:05.666Z,8.70
2022-09-27T07:33:33.371Z,8.70
2022-09-27T07:36:01.043Z,8.70
2022-09-27T07:38:28.067Z,8.70
2022-09-27T07:40:55.149Z,8.70
2022-09-27T07:43:22.299Z,8.80
2022-09-27T07:45:49.407Z,8.90
2022-09-27T07:48:17.332Z,8.90
2022-09-27T07:50:44.702Z,8.90
2022-09-27T07:53:13.864Z,8.90
2022-09-27T07:55:42.692Z,8.90
2022-09-27T07:58:12.225Z,8.90
2022-09-27T08:00:40.965Z,8.80
2022-09-27T08:03:17.798Z,8.80
2022-09-27T08:05:47.396Z,8.90
2022-09-27T08:08:17.006Z,8.90
2022-09-27T08:10:47.065Z,8.90
2022-09-27T08:13:18.052Z,8.90
2022-09-27T08:15:45.122Z,8.90
2022-09-27T08:18:12.198Z,8.90
2022-09-27T08:20:40.186Z,8.90
2022-09-27T08:23:07.466Z,9.00
2022-09-27T08:25:34.767Z,9.10
2022-09-27T08:28:04.722Z,9.10
2022-09-27T08:30:32.610Z,9.20
2022-09-27T08:33:02.639Z,9.30
2022-09-27T08:35:32.043Z,9.30
2022-09-27T08:38:01.364Z,9.30
2022-09-27T08:40:56.809Z,9.30
2022-09-27T08:44:24.035Z,9.20
2022-09-27T08:47:17.248Z,9.20
2022-09-27T08:50:21.686Z,9.30
2022-09-27T08:53:16.766Z,9.30
2022-09-27T08:55:56.008Z,9.30
2022-09-27T08:58:59.326Z,9.30
2022-09-27T09:01:29.120Z,9.40
2022-09-27T09:03:59.877Z,9.40
2022-09-27T09:07:01.499Z,9.40
2022-09-27T09:09:52.347Z,9.50
2022-09-27T09:12:53.482Z,9.60
2022-09-27T09:15:32.210Z,9.50
2022-09-27T09:18:33.221Z,9.50
2022-09-27T09:21:34.197Z,9.60
2022-09-27T09:24:22.974Z,9.60
2022-09-27T09:26:59.027Z,9.60
2022-09-27T09:30:19.445Z,9.70
2022-09-27T09:33:10.307Z,9.70
2022-09-27T09:35:45.216Z,9.70
2022-09-27T09:38:19.571Z,9.90
2022-09-27T09:40:58.220Z,9.90
2022-09-27T09:43:48.350Z,9.90
2022-09-27T09:46:35.211Z,10.00
2022-09-27T09:49:23.911Z,10.00
2022-09-27T09:52:06.518Z,10.00
2022-09-27T09:55:02.959Z,10.00
2022-09-27T09:57:47.896Z,10.00
2022-09-27T10:00:18.953Z,10.20
2022-09-27T10:02:48.082Z,10.40
2022-09-27T10:05:21.114Z,10.60
2022-09-27T10:07:50.891Z,10.70
2022-09-27T10:10:19.919Z,10.70
2022-09-27T10:12:48.208Z,10.40
2022-09-27T10:15:25.234Z,10.30
2022-09-27T10:17:56.795Z,10.30
2022-09-27T10:20:43.450Z,10.20
2022-09-27T10:23:21.280Z,10.10
2022-09-27T10:25:55.863Z,10.10
2022-09-27T10:28:39.160Z,10.20
2022-09-27T10:31:18.642Z,10.30
2022-09-27T10:34:02.807Z,10.50
2022-09-27T10:36:33.375Z,10.70
2022-09-27T10:39:06.705Z,10.90
2022-09-27T10:41:38.568Z,11.20
2022-09-27T10:44:18.112Z,11.30
2022-09-27T10:46:49.609Z,11.00
2022-09-27T10:49:43.447Z,10.90
2022-09-27T10:52:24.034Z,10.80
2022-09-27T10:54:58.347Z,10.90
2022-09-27T10:57:30.779Z,10.80
2022-09-27T11:00:05.574Z,10.90
2022-09-27T11:02:40.286Z,11.00
2022-09-27T11:05:15.052Z,11.00
2022-09-27T11:07:53.008Z,11.00
2022-09-27T11:10:29.133Z,10.80
2022-09-27T11:13:09.199Z,10.90
2022-09-27T11:16:24.312Z,11.20
2022-09-27T11:19:44.892Z,11.20
2022-09-27T11:22:20.551Z,11.10
2022-09-27T11:25:28.426Z,11.20
2022-09-27T11:28:07.466Z,11.40
2022-09-27T11:31:03.944Z,11.40
2022-09-27T11:33:39.663Z,11.50
2022-09-27T11:36:30.908Z,11.50
2022-09-27T11:39:39.851Z,11.20
2022-09-27T11:42:33.367Z,11.10
2022-09-27T11:46:15.214Z,11.10
2022-09-27T11:49:01.076Z,11.30
2022-09-27T11:51:54.958Z,11.30
2022-09-27T11:54:31.036Z,11.60
2022-09-27T11:57:26.453Z,11.60
2022-09-27T12:00:21.303Z,11.50
2022-09-27T12:03:11.823Z,11.10
2022-09-27T12:06:16.693Z,10.80
2022-09-27T12:08:50.493Z,10.50
2022-09-27T12:11:39.579Z,10.30
2022-09-27T12:14:30.627Z,10.20
2022-09-27T12:16:58.879Z,10.10
2022-09-27T12:19:30.926Z,9.90
2022-09-27T12:22:03.328Z,9.90
2022-09-27T12:24:31.292Z,9.90
2022-09-27T12:27:16.451Z,10.00
2022-09-27T12:29:47.045Z,10.10
2022-09-27T12:32:24.403Z,10.30
2022-09-27T12:35:24.737Z,11.00
2022-09-27T12:38:14.416Z,11.60
2022-09-27T12:40:49.969Z,12.40
2022-09-27T12:43:29.354Z,13.00
2022-09-27T12:46:17.968Z,13.40
2022-09-27T12:49:06.319Z,13.80
2022-09-27T12:51:49.694Z,14.00
2022-09-27T12:54:37.736Z,14.30
2022-09-27T12:58:02.927Z,14.50
2022-09-27T13:00:47.341Z,14.30
2022-09-27T13:03:47.881Z,14.10
2022-09-27T13:06:17.660Z,13.60
2022-09-27T13:08:54.406Z,13.10
2022-09-27T13:11:36.798Z,12.80
2022-09-27T13:14:05.546Z,12.60
2022-09-27T13:16:43.985Z,12.40
2022-09-27T13:19:42.962Z,12.40
2022-09-27T13:22:28.528Z,12.40
2022-09-27T13:24:55.847Z,12.20
2022-09-27T13:27:23.277Z,12.30
2022-09-27T13:30:13.208Z,12.10
2022-09-27T13:32:41.011Z,12.10
2022-09-27T13:35:27.052Z,12.10
2022-09-27T13:37:59.587Z,12.10
2022-09-27T13:40:45.125Z,11.70
2022-09-27T13:43:13.233Z,11.30
2022-09-27T13:45:58.794Z,11.20
2022-09-27T13:48:35.858Z,10.90
2022-09-27T13:51:16.411Z,10.90
2022-09-27T13:53:55.443Z,10.80
2022-09-27T13:56:38.208Z,10.60
2022-09-27T13:59:11.253Z,10.50
2022-09-27T14:01:47.480Z,10.60
2022-09-27T14:04:29.927Z,10.60
2022-09-27T14:07:02.023Z,10.70
2022-09-27T14:09:34.911Z,10.70
2022-09-27T14:12:19.330Z,10.60
2022-09-27T14:14:49.576Z,10.70
2022-09-27T14:17:17.352Z,10.70
2022-09-27T14:19:45.564Z,10.80
2022-09-27T14:22:18.398Z,10.70
2022-09-27T14:24:58.195Z,10.80
2022-09-27T14:27:37.152Z,10.70
2022-09-27T14:30:15.974Z,10.60
2022-09-27T14:32:52.431Z,10.60
2022-09-27T14:35:49.467Z,10.40
2022-09-27T14:38:37.049Z,10.30
2022-09-27T14:41:08.118Z,10.30
2022-09-27T14:43:37.469Z,10.30
2022-09-27T14:46:07.165Z,10.40
2022-09-27T14:48:39.012Z,10.40
2022-09-27T14:51:21.857Z,10.40
2022-09-27T14:53:57.133Z,10.40
2022-09-27T14:56:37.839Z,10.40
2022-09-27T14:59:16.402Z,10.30
2022-09-27T15:01:53.316Z,10.30
2022-09-27T15:04:23.585Z,10.40
2022-09-27T15:06:51.613Z,10.40
2022-09-27T15:09:19.821Z,10.40
2022-09-27T15:11:54.611Z,10.30
2022-09-27T15:14:23.952Z,10.30
2022-09-27T15:16:52.818Z,10.30
2022-09-27T15:19:29.280Z,10.30
2022-09-27T15:22:00.317Z,10.30
2022-09-27T15:24:45.739Z,10.30
2022-09-27T15:27:23.005Z,10.30
2022-09-27T15:29:53.823Z,10.30
2022-09-27T15:32:24.287Z,10.30
2022-09-27T15:34:52.681Z,10.30
2022-09-27T15:37:38.738Z,10.30
2022-09-27T15:40:47.562Z,10.30
2022-09-27T15:43:32.144Z,10.30
2022-09-27T15:46:03.807Z,10.30
2022-09-27T15:48:37.731Z,10.20
2022-09-27T15:51:41.816Z,10.20
2022-09-27T15:54:08.864Z,10.10
2022-09-27T15:56:36.659Z,10.10
2022-09-27T15:59:03.985Z,10.00
2022-09-27T16:01:31.171Z,10.00
2022-09-27T16:03:59.926Z,9.90
2022-09-27T16:06:28.975Z,9.70
2022-09-27T16:08:56.070Z,9.60
2022-09-27T16:11:23.077Z,9.30
2022-09-27T16:13:52.902Z,9.10
2022-09-27T16:16:22.836Z,8.90
2022-09-27T16:18:50.054Z,8.70
2022-09-27T16:21:17.675Z,8.60
2022-09-27T16:23:44.945Z,8.60
2022-09-27T16:26:11.970Z,8.50
2022-09-27T16:28:39.007Z,8.40
2022-09-27T16:31:07.403Z,8.40
2022-09-27T16:33:35.811Z,8.30
2022-09-27T16:36:14.358Z,8.30
2022-09-27T16:38:43.044Z,8.30
2022-09-27T16:41:10.106Z,8.30
2022-09-27T16:43:37.191Z,8.30
2022-09-27T16:46:12.950Z,8.40
2022-09-27T16:48:40.233Z,8.40
2022-09-27T16:51:38.554Z,8.40
2022-09-27T16:54:07.774Z,8.40
2022-09-27T16:56:36.321Z,8.40
2022-09-27T16:59:04.951Z,8.40
2022-09-27T17:01:32.293Z,8.50
2022-09-27T17:03:59.824Z,8.40
2022-09-27T17:06:32.179Z,8.40
2022-09-27T17:09:03.820Z,8.40
2022-09-27T17:11:31.368Z,8.50
2022-09-27T17:13:59.008Z,8.50
2022-09-27T17:16:26.828Z,8.50
2022-09-27T17:18:54.597Z,8.50
2022-09-27T17:21:21.881Z,8.50
2022-09-27T17:23:49.219Z,8.40
2022-09-27T17:26:24.021Z,8.40
2022-09-27T17:28:55.028Z,8.40
2022-09-27T17:31:22.092Z,8.40
2022-09-27T17:33:55.547Z,8.40
2022-09-27T17:36:32.799Z,8.40
2022-09-27T17:38:59.916Z,8.50
2022-09-27T17:41:28.986Z,8.50
2022-09-27T17:43:59.315Z,8.50
2022-09-27T17:46:30.381Z,8.50
2022-09-27T17:49:16.255Z,8.50
2022-09-27T17:51:47.390Z,8.50
2022-09-27T17:54:15.274Z,8.60
2022-09-27T17:56:43.438Z,8.60
2022-09-27T17:59:12.840Z,8.60
2022-09-27T18:01:40.113Z,8.60
2022-09-27T18:04:10.493Z,8.50
2022-09-27T18:06:42.694Z,8.40
2022-09-27T18:09:11.884Z,8.40
2022-09-27T18:11:40.163Z,8.30
2022-09-27T18:14:07.934Z,8.30
2022-09-27T18:16:39.589Z,8.20
2022-09-27T18:19:11.130Z,8.20
2022-09-27T18:21:39.598Z,8.20
2022-09-27T18:24:07.370Z,8.20
2022-09-27T18:26:40.401Z,8.20
2022-09-27T18:29:12.407Z,8.20
2022-09-27T18:31:48.021Z,8.10
2022-09-27T18:34:16.643Z,8.10
2022-09-27T18:36:44.667Z,8.00
2022-09-27T18:39:17.427Z,8.00
2022-09-27T18:41:45.627Z,8.00
2022-09-27T18:44:14.528Z,7.90
2022-09-27T18:46:42.256Z,7.80
2022-09-27T18:49:13.046Z,7.80
2022-09-27T18:51:44.441Z,7.70
2022-09-27T18:54:18.484Z,7.70
2022-09-27T18:56:47.075Z,7.70
2022-09-27T18:59:14.836Z,7.60
2022-09-27T19:01:45.509Z,7.60
2022-09-27T19:04:25.013Z,7.60
2022-09-27T19:06:54.660Z,7.60
2022-09-27T19:09:22.135Z,7.60
2022-09-27T19:11:49.403Z,7.60
2022-09-27T19:14:20.223Z,7.60
2022-09-27T19:16:48.274Z,7.60
2022-09-27T19:19:20.158Z,7.50
2022-09-27T19:21:48.018Z,7.50
2022-09-27T19:24:16.105Z,7.50
2022-09-27T19:26:43.435Z,7.50
2022-09-27T19:29:11.719Z,7.40
2022-09-27T19:31:39.024Z,7.40
2022-09-27T19:34:06.138Z,7.40
2022-09-27T19:36:33.281Z,7.40
2022-09-27T19:39:02.168Z,7.40
2022-09-27T19:41:29.563Z,7.30
2022-09-27T19:43:57.467Z,7.30
2022-09-27T19:46:25.873Z,7.30
2022-09-27T19:48:53.875Z,7.30
2022-09-27T19:51:24.700Z,7.30
2022-09-27T19:53:53.657Z,7.30
2022-09-27T19:56:21.576Z,7.30
2022-09-27T19:58:48.760Z,7.20
2022-09-27T20:01:26.143Z,7.30
2022-09-27T20:03:58.020Z,7.30
2022-09-27T20:06:25.064Z,7.20
2022-09-27T20:08:52.517Z,7.20
2022-09-27T20:11:23.806Z,7.20
2022-09-27T20:13:53.331Z,7.20
2022-09-27T20:16:24.210Z,7.10
2022-09-27T20:18:59.855Z,7.10
2022-09-27T20:21:32.569Z,7.20
2022-09-27T20:24:02.155Z,7.20
2022-09-27T20:26:31.195Z,7.20
2022-09-27T20:29:00.692Z,7.20
2022-09-27T20:31:33.698Z,7.10
2022-09-27T20:34:01.462Z,7.10
2022-09-27T20:36:36.614Z,7.20
2022-09-27T20:39:10.877Z,7.20
2022-09-27T20:41:46.433Z,7.30
2022-09-27T20:44:19.628Z,7.30
2022-09-27T20:46:47.992Z,7.30
2022-09-27T20:49:18.679Z,7.40
2022-09-27T20:51:51.459Z,7.40
2022-09-27T20:54:18.882Z,7.40
2022-09-27T20:56:48.011Z,7.40
2022-09-27T20:59:22.068Z,7.40
2022-09-27T21:01:51.886Z,7.50
2022-09-27T21:04:21.462Z,7.50
2022-09-27T21:06:48.517Z,7.50
2022-09-27T21:09:19.189Z,7.50
2022-09-27T21:11:49.135Z,7.60
2022-09-27T21:14:16.424Z,7.60
2022-09-27T21:16:43.995Z,7.60
2022-09-27T21:19:11.216Z,7.60
2022-09-27T21:21:38.225Z,7.60
2022-09-27T21:24:05.767Z,7.70
2022-09-27T21:26:34.279Z,7.70
2022-09-27T21:29:07.066Z,7.70
2022-09-27T21:31:34.489Z,7.70
2022-09-27T21:34:04.088Z,7.80
2022-09-27T21:36:34.363Z,7.80
2022-09-27T21:39:02.205Z,7.70
2022-09-27T21:41:29.271Z,7.80
2022-09-27T21:43:57.501Z,7.80
2022-09-27T21:46:27.927Z,7.80
2022-09-27T21:49:01.876Z,7.80
2022-09-27T21:51:39.519Z,7.80
2022-09-27T21:54:11.992Z,7.80
2022-09-27T21:56:40.280Z,7.80
2022-09-27T21:59:11.987Z,7.80
2022-09-27T22:01:39.303Z,7.80
2022-09-27T22:04:08.019Z,7.80
2022-09-27T22:06:37.950Z,7.80
2022-09-27T22:09:08.656Z,7.80
2022-09-27T22:11:42.505Z,7.80
2022-09-27T22:14:10.613Z,7.80
2022-09-27T22:16:38.160Z,7.80
2022-09-27T22:19:05.771Z,7.80
2022-09-27T22:21:36.688Z,7.80
2022-09-27T22:24:15.986Z,7.80
2022-09-27T22:26:49.144Z,7.70
2022-09-27T22:29:16.584Z,7.80
2022-09-27T22:31:43.951Z,7.80
2022-09-27T22:34:20.728Z,7.80
2022-09-27T22:36:47.803Z,7.80
2022-09-27T22:39:14.933Z,7.80
2022-09-27T22:41:42.034Z,7.80
2022-09-27T22:44:09.033Z,7.80
2022-09-27T22:46:36.309Z,7.80
2022-09-27T22:49:03.383Z,7.90
2022-09-27T22:51:30.421Z,7.90
2022-09-27T22:53:57.543Z,7.90
2022-09-27T22:56:24.679Z,7.90
2022-09-27T22:58:51.941Z,7.90
2022-09-27T23:01:24.718Z,7.90
2022-09-27T23:03:53.761Z,7.90
2022-09-27T23:06:22.671Z,8.00
2022-09-27T23:08:51.385Z,8.00
2022-09-27T23:11:21.626Z,8.00
2022-09-27T23:13:50.727Z,7.90
2022-09-27T23:16:21.326Z,7.90
2022-09-27T23:18:48.413Z,8.00
2022-09-27T23:21:16.240Z,8.10
2022-09-27T23:23:45.854Z,8.00
2022-09-27T23:26:15.531Z,8.10
2022-09-27T23:28:42.871Z,8.10
2022-09-27T23:31:17.042Z,8.10
2022-09-27T23:33:48.543Z,8.10
2022-09-27T23:36:26.371Z,8.20
2022-09-27T23:38:55.860Z,8.20
2022-09-27T23:41:22.986Z,8.20
2022-09-27T23:43:50.188Z,8.20
2022-09-27T23:46:18.683Z,8.20
2022-09-27T23:48:46.222Z,8.30
2022-09-27T23:51:13.630Z,8.30
2022-09-27T23:53:40.950Z,8.30
2022-09-27T23:56:15.274Z,8.30
2022-09-27T23:58:44.859Z,8.30
